Time;durP1;ratioP1;P1;durP2;ratioP2;P2;SDS_P1;SDS_P2;PMS_P1;PMS_P2;Temp;Humidity;BMP_temperature;BMP_pressure;BME280_temperature;BME280_humidity;BME280_pressure;Samples;Min_cycle;Max_cycle;Signal;HPM_P1;HPM_P2
2023/05/04 00:02:06;;;;;;;11.80;3.70;;;9.80;99.90;;;;;;5075737;28;20229;-70
2023/05/04 00:04:32;;;;;;;10.20;3.40;;;9.70;99.90;;;;;;5073248;28;20288;-71
2023/05/04 00:06:58;;;;;;;10.33;3.47;;;9.70;99.90;;;;;;5073004;28;20660;-69
2023/05/04 00:09:23;;;;;;;7.97;3.27;;;9.90;99.90;;;;;;5065910;28;20261;-71
2023/05/04 00:11:49;;;;;;;8.37;3.57;;;9.60;99.90;;;;;;5070442;28;20218;-71
2023/05/04 00:14:14;;;;;;;8.60;3.17;;;9.70;99.90;;;;;;5067778;28;20286;-71
2023/05/04 00:16:40;;;;;;;7.30;2.90;;;9.70;99.90;;;;;;5069862;28;20689;-69
2023/05/04 00:19:06;;;;;;;12.13;3.13;;;9.50;99.90;;;;;;5068055;28;20685;-71
2023/05/04 00:21:31;;;;;;;11.07;3.13;;;9.40;99.90;;;;;;5061859;28;20282;-71
2023/05/04 00:23:57;;;;;;;5.93;2.87;;;9.40;99.90;;;;;;5064345;28;20211;-72
2023/05/04 00:26:23;;;;;;;8.57;3.37;;;9.40;99.90;;;;;;5060327;28;20306;-70
2023/05/04 00:28:48;;;;;;;10.60;3.43;;;9.40;99.90;;;;;;5068121;28;20704;-71
2023/05/04 00:31:14;;;;;;;7.70;3.00;;;9.40;99.90;;;;;;5071473;28;20234;-70
2023/05/04 00:33:40;;;;;;;8.03;3.37;;;9.20;99.90;;;;;;5075943;28;20195;-71
2023/05/04 00:36:06;;;;;;;7.00;3.40;;;9.30;99.90;;;;;;5077905;28;20174;-71
2023/05/04 00:38:46;;;;;;;6.77;3.43;;;9.20;99.90;;;;;;5073499;28;20267;-69
2023/05/04 00:41:12;;;;;;;7.33;3.23;;;9.20;99.90;;;;;;5074264;28;20210;-71
2023/05/04 00:43:38;;;;;;;8.20;3.17;;;9.30;99.90;;;;;;5071417;28;20213;-70
2023/05/04 00:46:03;;;;;;;10.80;3.60;;;9.10;99.90;;;;;;5072928;28;20259;-71
2023/05/04 00:48:29;;;;;;;5.43;3.10;;;9.20;99.90;;;;;;5068441;28;20183;-71
2023/05/04 00:50:55;;;;;;;6.00;2.87;;;9.30;99.90;;;;;;5068471;28;20312;-71
2023/05/04 00:53:21;;;;;;;7.80;3.20;;;9.20;99.90;;;;;;5065097;28;20218;-71
2023/05/04 00:55:46;;;;;;;7.10;3.00;;;9.10;99.90;;;;;;5066614;28;20208;-69
2023/05/04 00:58:12;;;;;;;9.03;3.20;;;9.00;99.90;;;;;;5065504;28;20226;-71
2023/05/04 01:00:37;;;;;;;7.03;3.00;;;8.90;99.90;;;;;;5064512;28;20203;-71
2023/05/04 01:03:03;;;;;;;9.60;3.87;;;8.90;99.90;;;;;;5063858;28;20171;-71
2023/05/04 01:05:34;;;;;;;10.40;3.33;;;8.90;99.90;;;;;;5059031;28;20277;-70
2023/05/04 01:08:12;;;;;;;10.77;3.60;;;8.90;99.90;;;;;;5062397;28;20211;-71
2023/05/04 01:10:46;;;;;;;9.27;3.30;;;9.00;99.90;;;;;;5077898;28;20692;-71
2023/05/04 01:13:14;;;;;;;5.33;2.80;;;8.90;99.90;;;;;;5077073;28;20260;-71
2023/05/04 01:15:41;;;;;;;14.30;3.77;;;8.80;99.90;;;;;;5075334;28;20175;-71
2023/05/04 01:18:06;;;;;;;7.57;3.13;;;8.70;99.90;;;;;;5076905;28;20247;-71
2023/05/04 01:20:33;;;;;;;6.83;3.13;;;8.80;99.90;;;;;;5069946;28;20211;-71
2023/05/04 01:22:59;;;;;;;12.67;3.50;;;8.80;99.90;;;;;;5072083;28;20216;-71
2023/05/04 01:25:31;;;;;;;8.10;3.23;;;8.60;99.90;;;;;;5071549;28;20234;-71
2023/05/04 01:28:11;;;;;;;9.33;3.47;;;8.60;99.90;;;;;;5074462;28;20608;-71
2023/05/04 01:30:43;;;;;;;10.97;3.67;;;8.70;99.90;;;;;;5068822;28;20301;-70
2023/05/04 01:33:09;;;;;;;8.27;3.37;;;8.60;99.90;;;;;;5069120;28;20201;-71
2023/05/04 01:35:36;;;;;;;11.60;4.07;;;8.60;99.90;;;;;;5066310;28;20570;-69
2023/05/04 01:38:02;;;;;;;7.17;3.00;;;8.60;99.90;;;;;;5073786;28;20218;-71
2023/05/04 01:40:28;;;;;;;8.77;3.13;;;8.50;99.90;;;;;;5062377;28;20682;-69
2023/05/04 01:42:54;;;;;;;6.60;3.00;;;8.50;99.90;;;;;;5063664;28;20190;-70
2023/05/04 01:45:20;;;;;;;8.10;3.80;;;8.60;99.90;;;;;;5063605;28;20175;-70
2023/05/04 01:47:47;;;;;;;9.27;3.83;;;8.50;99.90;;;;;;5081219;28;20285;-71
2023/05/04 01:50:12;;;;;;;8.90;3.60;;;8.50;99.90;;;;;;5078427;28;20225;-70
2023/05/04 01:52:38;;;;;;;5.53;3.13;;;8.50;99.90;;;;;;5077424;28;20203;-72
2023/05/04 01:55:04;;;;;;;9.57;4.00;;;8.50;99.90;;;;;;5080271;28;20258;-71
2023/05/04 01:57:29;;;;;;;10.23;3.23;;;8.50;99.90;;;;;;5076404;28;20258;-71
2023/05/04 01:59:55;;;;;;;9.23;3.33;;;8.50;99.90;;;;;;5075863;28;20316;-71
2023/05/04 02:02:21;;;;;;;8.13;4.00;;;8.40;99.90;;;;;;5065105;28;20207;-71
2023/05/04 02:04:46;;;;;;;8.80;3.43;;;8.60;99.90;;;;;;5072429;28;20204;-72
2023/05/04 02:07:12;;;;;;;9.07;3.00;;;8.70;99.90;;;;;;5074844;28;20256;-71
2023/05/04 02:09:38;;;;;;;8.37;3.33;;;8.80;99.90;;;;;;5067933;28;20528;-71
2023/05/04 02:12:04;;;;;;;12.30;4.40;;;8.80;99.90;;;;;;5070570;28;20190;-69
2023/05/04 02:14:29;;;;;;;11.67;3.30;;;8.70;99.90;;;;;;5066426;28;20203;-71
2023/05/04 02:16:55;;;;;;;9.37;3.40;;;8.60;99.90;;;;;;5067306;28;20905;-72
2023/05/04 02:19:21;;;;;;;9.37;3.43;;;8.60;99.90;;;;;;5063964;28;20580;-71
2023/05/04 02:21:47;;;;;;;13.07;4.07;;;8.70;99.90;;;;;;5062568;28;20689;-70
2023/05/04 02:24:12;;;;;;;7.80;3.40;;;8.70;99.90;;;;;;5063843;28;20179;-71
2023/05/04 02:26:38;;;;;;;9.27;3.23;;;8.60;99.90;;;;;;5075129;28;20338;-71
2023/05/04 02:29:04;;;;;;;9.50;3.77;;;8.70;99.90;;;;;;5081802;28;20538;-72
2023/05/04 02:31:31;;;;;;;9.60;3.50;;;8.60;99.90;;;;;;5077455;28;20215;-70
2023/05/04 02:33:56;;;;;;;7.97;3.03;;;8.50;99.90;;;;;;5072889;28;20558;-70
2023/05/04 02:36:22;;;;;;;6.70;3.03;;;8.50;99.90;;;;;;5067812;28;20173;-71
2023/05/04 02:38:48;;;;;;;9.33;3.33;;;8.50;99.90;;;;;;5069388;28;20211;-71
2023/05/04 02:41:14;;;;;;;9.53;3.10;;;8.50;99.90;;;;;;5067322;28;20309;-71
2023/05/04 02:43:40;;;;;;;6.90;3.37;;;8.40;99.90;;;;;;5064522;28;20298;-71
2023/05/04 02:46:05;;;;;;;8.90;3.37;;;8.40;99.90;;;;;;5069661;28;20205;-71
2023/05/04 02:48:32;;;;;;;10.67;3.37;;;8.40;99.90;;;;;;5063766;28;20244;-72
2023/05/04 02:50:58;;;;;;;8.40;3.40;;;8.40;99.90;;;;;;5062400;28;20219;-71
2023/05/04 02:53:23;;;;;;;7.13;2.67;;;8.30;99.90;;;;;;5063518;28;20218;-72
2023/05/04 02:55:49;;;;;;;9.17;2.97;;;8.30;99.90;;;;;;5063137;28;20212;-71
2023/05/04 02:58:14;;;;;;;11.27;2.93;;;8.30;99.90;;;;;;5064002;28;20592;-71
2023/05/04 03:00:41;;;;;;;8.13;3.17;;;8.40;99.90;;;;;;5061951;28;20195;-71
2023/05/04 03:03:06;;;;;;;7.83;3.10;;;8.50;99.90;;;;;;5063209;28;20241;-71
2023/05/04 03:05:32;;;;;;;10.50;3.63;;;8.50;99.90;;;;;;5070729;28;20668;-71
2023/05/04 03:07:57;;;;;;;8.13;3.30;;;8.60;99.90;;;;;;5069190;28;20705;-70
2023/05/04 03:10:23;;;;;;;7.03;3.97;;;8.50;99.90;;;;;;5065056;28;20211;-70
2023/05/04 03:12:49;;;;;;;10.07;3.30;;;8.40;99.90;;;;;;5067410;28;20171;-71
2023/05/04 03:15:15;;;;;;;6.60;2.80;;;8.40;99.90;;;;;;5069592;28;20171;-72
2023/05/04 03:17:42;;;;;;;6.83;3.63;;;8.30;99.90;;;;;;5065850;28;20234;-71
2023/05/04 03:20:09;;;;;;;11.30;3.47;;;8.30;99.90;;;;;;5066275;28;20297;-71
2023/05/04 03:22:35;;;;;;;11.77;3.57;;;8.40;99.90;;;;;;5064826;28;20286;-70
2023/05/04 03:25:00;;;;;;;10.40;3.93;;;8.40;99.90;;;;;;5065610;28;20297;-71
2023/05/04 03:27:26;;;;;;;9.63;4.27;;;8.40;99.90;;;;;;5065003;28;20183;-71
2023/05/04 03:29:52;;;;;;;12.23;3.87;;;8.40;99.90;;;;;;5060531;28;20202;-71
2023/05/04 03:32:17;;;;;;;8.67;3.40;;;8.40;99.90;;;;;;5061752;28;20203;-71
2023/05/04 03:34:44;;;;;;;13.67;3.60;;;8.30;99.90;;;;;;5059954;28;20306;-71
2023/05/04 03:37:10;;;;;;;8.67;3.47;;;8.20;99.90;;;;;;5067085;28;20202;-72
2023/05/04 03:39:36;;;;;;;10.13;3.57;;;8.10;99.90;;;;;;5062573;28;20696;-71
2023/05/04 03:42:02;;;;;;;10.77;2.87;;;8.20;99.90;;;;;;5061491;28;20223;-71
2023/05/04 03:44:28;;;;;;;9.23;3.10;;;8.10;99.90;;;;;;5068608;28;20241;-71
2023/05/04 03:46:54;;;;;;;9.57;3.00;;;8.10;99.90;;;;;;5068374;28;20230;-71
2023/05/04 03:49:19;;;;;;;8.33;3.70;;;8.10;99.90;;;;;;5069071;28;20199;-71
2023/05/04 03:51:46;;;;;;;10.43;3.50;;;8.10;99.90;;;;;;5067425;28;20681;-71
2023/05/04 03:54:11;;;;;;;10.63;2.97;;;8.10;99.90;;;;;;5068220;28;20175;-71
2023/05/04 03:56:37;;;;;;;9.17;3.37;;;8.20;99.90;;;;;;5066036;28;20199;-71
2023/05/04 03:59:02;;;;;;;8.30;3.58;;;8.30;99.90;;;;;;5063402;28;20432;-71
2023/05/04 04:01:28;;;;;;;13.13;3.20;;;8.50;99.90;;;;;;5065172;28;20210;-70
2023/05/04 04:03:54;;;;;;;7.53;3.13;;;8.80;99.90;;;;;;5065582;28;20171;-71
2023/05/04 04:06:20;;;;;;;6.00;2.80;;;8.90;99.90;;;;;;5065789;28;20535;-71
2023/05/04 04:08:46;;;;;;;5.77;2.60;;;9.00;99.90;;;;;;5059765;28;20199;-71
2023/05/04 04:11:11;;;;;;;8.97;3.13;;;8.90;99.90;;;;;;5063448;28;20198;-71
2023/05/04 04:13:37;;;;;;;6.23;2.73;;;8.90;99.90;;;;;;5060136;28;20298;-70
2023/05/04 04:16:03;;;;;;;8.47;3.07;;;9.00;99.90;;;;;;5060440;28;20260;-71
2023/05/04 04:18:29;;;;;;;9.97;3.00;;;8.80;99.90;;;;;;5060658;28;20187;-71
2023/05/04 04:20:55;;;;;;;9.33;3.87;;;8.80;99.90;;;;;;5058982;28;20219;-71
2023/05/04 04:23:20;;;;;;;10.83;4.00;;;9.00;99.90;;;;;;5069408;28;20195;-72
2023/05/04 04:25:46;;;;;;;5.70;3.10;;;9.20;99.90;;;;;;5066487;28;20202;-71
2023/05/04 04:28:15;;;;;;;9.30;3.10;;;9.30;99.90;;;;;;5067969;28;20222;-71
2023/05/04 04:30:41;;;;;;;9.73;3.50;;;9.40;99.90;;;;;;5068059;28;20195;-72
2023/05/04 04:33:07;;;;;;;6.23;3.00;;;9.80;99.90;;;;;;5066825;28;20187;-72
2023/05/04 04:35:33;;;;;;;6.90;2.87;;;10.90;99.90;;;;;;5066854;28;20585;-72
2023/05/04 04:37:59;;;;;;;6.73;3.33;;;12.20;99.90;;;;;;5065995;28;20207;-71
2023/05/04 04:40:25;;;;;;;6.37;2.50;;;12.80;99.90;;;;;;5064853;28;20222;-71
2023/05/04 04:42:51;;;;;;;6.07;2.42;;;13.90;99.90;;;;;;5062279;28;20176;-71
2023/05/04 04:45:17;;;;;;;8.32;2.85;;;14.60;99.90;;;;;;5065972;28;20163;-71
2023/05/04 04:47:44;;;;;;;7.97;2.80;;;14.80;99.90;;;;;;5066892;28;20218;-72
2023/05/04 04:50:10;;;;;;;8.55;2.83;;;15.50;99.90;;;;;;5068536;28;20199;-70
2023/05/04 04:52:36;;;;;;;6.68;2.80;;;15.60;99.90;;;;;;5064911;28;20202;-70
2023/05/04 04:55:03;;;;;;;4.93;2.88;;;15.70;99.90;;;;;;5066144;28;20357;-72
2023/05/04 04:57:29;;;;;;;6.68;2.85;;;16.20;99.90;;;;;;5072966;28;20536;-69
2023/05/04 04:59:55;;;;;;;6.90;3.13;;;16.60;99.90;;;;;;5066307;28;20220;-72
2023/05/04 05:02:21;;;;;;;8.43;3.30;;;15.80;99.90;;;;;;5067444;28;20510;-71
2023/05/04 05:04:48;;;;;;;6.43;2.85;;;16.40;99.90;;;;;;5070892;28;20209;-70
2023/05/04 05:07:14;;;;;;;9.15;3.42;;;16.60;99.90;;;;;;5075979;28;20724;-72
2023/05/04 05:09:40;;;;;;;7.82;3.25;;;16.20;99.90;;;;;;5067120;28;20190;-72
2023/05/04 05:12:05;;;;;;;7.15;3.50;;;15.80;99.90;;;;;;5077929;28;20198;-72
2023/05/04 05:14:32;;;;;;;9.50;3.25;;;15.80;99.90;;;;;;5070444;28;20221;-72
2023/05/04 05:16:58;;;;;;;6.97;3.13;;;15.80;99.90;;;;;;5065668;28;20685;-72
2023/05/04 05:19:24;;;;;;;8.27;2.90;;;16.40;99.90;;;;;;5069474;28;20666;-71
2023/05/04 05:21:50;;;;;;;8.43;3.03;;;16.10;99.90;;;;;;5065002;28;20257;-71
2023/05/04 05:24:16;;;;;;;9.65;3.22;;;16.80;99.90;;;;;;5069337;28;20195;-72
2023/05/04 05:26:41;;;;;;;11.45;3.03;;;17.50;99.90;;;;;;5064718;28;20226;-72
2023/05/04 05:29:08;;;;;;;8.45;3.33;;;17.00;99.90;;;;;;5065342;28;20204;-72
2023/05/04 05:31:34;;;;;;;5.40;3.25;;;16.30;99.90;;;;;;5060768;28;20203;-70
2023/05/04 05:33:59;;;;;;;7.45;3.10;;;17.10;99.90;;;;;;5064074;28;20648;-71
2023/05/04 05:36:26;;;;;;;7.93;3.08;;;16.90;99.90;;;;;;5064630;28;20523;-71
2023/05/04 05:38:51;;;;;;;9.00;3.78;;;16.90;99.90;;;;;;5069757;28;20217;-71
2023/05/04 05:41:17;;;;;;;7.20;3.55;;;17.80;99.90;;;;;;5070044;28;20203;-71
2023/05/04 05:43:43;;;;;;;7.40;3.45;;;18.00;99.90;;;;;;5070257;28;20205;-73
2023/05/04 05:46:09;;;;;;;5.63;3.40;;;18.40;99.90;;;;;;5073713;28;20203;-72
2023/05/04 05:48:34;;;;;;;7.88;3.25;;;18.40;99.90;;;;;;5076865;28;20171;-72
2023/05/04 05:51:00;;;;;;;8.10;3.13;;;18.40;99.90;;;;;;5062506;28;20227;-71
2023/05/04 05:53:26;;;;;;;4.60;3.13;;;18.60;99.90;;;;;;5066557;28;20294;-72
2023/05/04 05:55:51;;;;;;;7.22;3.45;;;18.60;99.90;;;;;;5059865;28;20203;-71
2023/05/04 05:58:17;;;;;;;6.35;3.38;;;18.30;99.90;;;;;;5065144;28;20279;-72
2023/05/04 06:00:42;;;;;;;7.88;3.70;;;18.30;99.90;;;;;;5064977;28;20197;-71
2023/05/04 06:03:08;;;;;;;7.43;3.40;;;18.90;99.90;;;;;;5064479;28;20780;-72
2023/05/04 06:05:34;;;;;;;7.55;3.45;;;18.90;99.90;;;;;;5065358;28;20570;-72
2023/05/04 06:07:59;;;;;;;8.00;3.70;;;19.70;99.90;;;;;;5062602;28;20207;-72
2023/05/04 06:10:25;;;;;;;11.20;3.88;;;19.10;99.90;;;;;;5064175;28;20195;-72
2023/05/04 06:12:51;;;;;;;7.45;3.22;;;20.90;99.90;;;;;;5060265;28;20168;-71
2023/05/04 06:15:17;;;;;;;11.52;3.63;;;21.80;99.90;;;;;;5064721;28;20251;-73
2023/05/04 06:17:43;;;;;;;9.73;4.22;;;21.60;99.20;;;;;;5075820;28;20195;-71
2023/05/04 06:20:09;;;;;;;8.40;3.60;;;20.70;99.30;;;;;;5063536;28;20219;-72
2023/05/04 06:22:34;;;;;;;7.13;3.55;;;20.40;99.30;;;;;;5076148;28;20740;-72
2023/05/04 06:25:00;;;;;;;7.25;3.65;;;20.90;99.20;;;;;;5067569;28;20217;-73
2023/05/04 06:27:27;;;;;;;10.07;3.83;;;22.20;97.40;;;;;;5068511;28;20167;-72
2023/05/04 06:29:53;;;;;;;8.13;3.30;;;22.80;95.80;;;;;;5066956;28;20627;-72
2023/05/04 06:32:19;;;;;;;8.52;4.10;;;22.90;94.50;;;;;;5067231;28;20274;-72
2023/05/04 06:34:44;;;;;;;9.60;3.75;;;22.40;95.10;;;;;;5062147;28;20276;-70
2023/05/04 06:37:10;;;;;;;8.57;3.58;;;22.00;95.10;;;;;;5063928;28;20209;-72
2023/05/04 06:39:36;;;;;;;8.80;3.70;;;22.00;94.20;;;;;;5065238;28;20229;-71
2023/05/04 06:42:02;;;;;;;9.18;3.78;;;22.90;93.40;;;;;;5064138;28;20282;-72
2023/05/04 06:44:28;;;;;;;7.47;3.30;;;22.90;93.00;;;;;;5064412;28;20869;-71
2023/05/04 06:46:53;;;;;;;7.70;3.72;;;22.30;92.10;;;;;;5062822;28;20220;-70
2023/05/04 06:49:19;;;;;;;9.20;4.03;;;21.70;92.70;;;;;;5063465;28;20198;-71
2023/05/04 06:51:45;;;;;;;11.55;4.03;;;21.60;92.80;;;;;;5061187;28;20206;-71
2023/05/04 06:54:11;;;;;;;7.40;3.38;;;22.60;92.90;;;;;;5058757;28;20175;-71
2023/05/04 06:56:38;;;;;;;9.80;3.47;;;23.00;91.60;;;;;;5068527;28;20791;-71
2023/05/04 06:59:04;;;;;;;7.90;3.58;;;23.40;90.30;;;;;;5066953;28;20243;-72
2023/05/04 07:01:30;;;;;;;9.98;3.75;;;23.10;91.40;;;;;;5070541;28;20628;-73
2023/05/04 07:03:57;;;;;;;7.78;4.30;;;24.70;89.00;;;;;;5059557;28;20286;-71
2023/05/04 07:06:25;;;;;;;7.32;3.65;;;24.80;86.90;;;;;;5067364;28;20195;-71
2023/05/04 07:08:51;;;;;;;9.95;3.75;;;24.20;84.50;;;;;;5070701;28;20290;-71
2023/05/04 07:11:17;;;;;;;9.43;3.75;;;22.60;86.60;;;;;;5061764;28;20238;-70
2023/05/04 07:13:42;;;;;;;7.50;4.70;;;23.50;87.60;;;;;;5069242;28;20207;-71
2023/05/04 07:16:08;;;;;;;7.28;4.03;;;24.40;86.10;;;;;;5070519;28;20230;-73
2023/05/04 07:18:34;;;;;;;11.63;4.00;;;24.70;84.20;;;;;;5068474;28;20538;-71
2023/05/04 07:21:00;;;;;;;4.75;3.10;;;24.90;83.60;;;;;;5059035;28;20203;-71
2023/05/04 07:23:26;;;;;;;7.47;3.78;;;25.80;82.20;;;;;;5066438;28;20661;-72
2023/05/04 07:25:51;;;;;;;8.52;3.80;;;25.10;83.80;;;;;;5057936;28;20701;-72
2023/05/04 07:28:17;;;;;;;7.50;3.92;;;26.40;81.20;;;;;;5063837;28;20238;-72
2023/05/04 07:30:43;;;;;;;6.53;4.22;;;27.10;78.20;;;;;;5059804;28;20197;-73
2023/05/04 07:33:08;;;;;;;9.55;3.25;;;27.60;75.00;;;;;;5062959;28;20681;-72
2023/05/04 07:35:34;;;;;;;7.07;3.65;;;27.10;75.20;;;;;;5080013;28;20251;-72
2023/05/04 07:38:00;;;;;;;9.10;3.88;;;24.70;76.00;;;;;;5079990;28;20211;-72
2023/05/04 07:40:26;;;;;;;8.10;4.07;;;24.30;78.40;;;;;;5074185;28;20212;-72
2023/05/04 07:42:51;;;;;;;9.77;3.67;;;24.90;78.60;;;;;;5071256;28;20718;-71
2023/05/04 07:45:17;;;;;;;6.20;3.65;;;26.10;77.70;;;;;;5071863;28;20166;-72
2023/05/04 07:47:43;;;;;;;11.63;5.63;;;25.40;77.60;;;;;;5067403;28;20225;-72
2023/05/04 07:50:09;;;;;;;5.93;3.92;;;25.10;77.10;;;;;;5066395;28;20219;-73
2023/05/04 07:52:34;;;;;;;11.48;4.03;;;25.30;77.60;;;;;;5064633;28;20256;-72
2023/05/04 07:55:00;;;;;;;8.02;3.90;;;26.00;77.80;;;;;;5060288;28;20230;-72
2023/05/04 07:57:26;;;;;;;7.70;3.60;;;26.70;75.20;;;;;;5067388;28;20185;-72
2023/05/04 07:59:55;;;;;;;5.55;3.72;;;25.90;75.60;;;;;;5065121;28;20207;-72
2023/05/04 08:02:21;;;;;;;7.05;3.13;;;25.40;76.30;;;;;;5065156;28;20322;-73
2023/05/04 08:04:47;;;;;;;7.05;4.13;;;25.30;76.00;;;;;;5059521;28;20232;-71
2023/05/04 08:07:15;;;;;;;6.22;3.10;;;24.60;77.10;;;;;;5059696;28;20605;-72
2023/05/04 08:09:41;;;;;;;7.50;3.25;;;25.30;75.80;;;;;;5059415;28;20233;-72
2023/05/04 08:12:06;;;;;;;8.15;3.83;;;26.00;75.60;;;;;;5061617;28;20650;-71
2023/05/04 08:14:32;;;;;;;7.55;3.33;;;25.00;76.20;;;;;;5069072;28;20206;-71
2023/05/04 08:16:59;;;;;;;7.40;3.40;;;25.60;76.30;;;;;;5073956;28;20209;-72
2023/05/04 08:19:25;;;;;;;6.10;3.20;;;26.20;77.70;;;;;;5068879;28;20210;-71
2023/05/04 08:21:50;;;;;;;8.20;3.30;;;25.80;75.80;;;;;;5082106;28;20609;-72
2023/05/04 08:24:17;;;;;;;6.72;3.42;;;24.90;75.40;;;;;;5079818;28;20179;-72
2023/05/04 08:26:42;;;;;;;6.60;3.22;;;24.10;77.00;;;;;;5068464;28;20199;-71
2023/05/04 08:29:09;;;;;;;8.40;3.50;;;24.10;77.70;;;;;;5071647;28;20207;-71
2023/05/04 08:31:35;;;;;;;12.60;7.22;;;23.50;77.50;;;;;;5068585;28;20226;-71
2023/05/04 08:34:02;;;;;;;6.43;3.65;;;23.30;79.70;;;;;;5069585;28;20281;-71
2023/05/04 08:36:28;;;;;;;7.25;4.78;;;22.70;79.50;;;;;;5062224;28;20263;-72
2023/05/04 08:38:54;;;;;;;14.20;7.75;;;22.90;80.30;;;;;;5060409;28;20217;-72
2023/05/04 08:41:22;;;;;;;7.22;3.13;;;23.00;79.90;;;;;;5069794;28;20206;-72
2023/05/04 08:43:48;;;;;;;7.13;2.80;;;22.10;79.70;;;;;;5065053;28;20203;-70
2023/05/04 08:46:15;;;;;;;6.03;2.90;;;21.70;80.40;;;;;;5066956;28;20210;-72
2023/05/04 08:48:43;;;;;;;6.80;3.30;;;21.40;80.30;;;;;;5064586;28;20642;-72
2023/05/04 08:51:09;;;;;;;7.18;4.85;;;21.80;80.80;;;;;;5075395;28;20225;-71
2023/05/04 08:53:38;;;;;;;7.72;3.22;;;22.10;81.00;;;;;;5074498;28;20248;-71
2023/05/04 08:56:08;;;;;;;7.47;3.10;;;22.50;79.40;;;;;;5074245;28;20218;-71
2023/05/04 08:58:36;;;;;;;6.93;3.80;;;21.40;80.10;;;;;;5072285;28;20219;-71
2023/05/04 09:01:05;;;;;;;10.00;2.63;;;21.80;82.60;;;;;;5068703;28;20226;-71
2023/05/04 09:03:32;;;;;;;6.18;2.03;;;21.60;80.90;;;;;;5070444;28;20230;-71
2023/05/04 09:05:59;;;;;;;5.20;3.03;;;21.70;80.20;;;;;;5073690;28;20341;-70
2023/05/04 09:08:25;;;;;;;5.40;2.28;;;21.70;81.30;;;;;;5062831;28;20208;-71
2023/05/04 09:10:51;;;;;;;7.25;3.03;;;21.70;81.00;;;;;;5063333;28;20321;-71
2023/05/04 09:13:17;;;;;;;7.45;2.60;;;21.40;80.00;;;;;;5070042;28;20231;-72
2023/05/04 09:15:55;;;;;;;3.80;2.28;;;21.50;80.80;;;;;;5064434;28;20254;-71
2023/05/04 09:18:22;;;;;;;4.47;2.60;;;21.60;80.10;;;;;;5064550;28;20206;-71
2023/05/04 09:20:48;;;;;;;4.53;2.20;;;20.50;80.40;;;;;;5064207;28;20219;-70
2023/05/04 09:23:17;;;;;;;4.63;2.35;;;20.80;81.00;;;;;;5063773;28;20219;-69
2023/05/04 09:25:50;;;;;;;11.85;3.15;;;20.30;81.80;;;;;;5064932;28;20203;-71
2023/05/04 09:28:18;;;;;;;5.90;2.58;;;20.00;82.10;;;;;;5063847;28;20289;-71
2023/05/04 09:30:44;;;;;;;7.50;3.42;;;20.40;83.40;;;;;;5074393;28;20722;-70
2023/05/04 09:33:10;;;;;;;4.72;3.03;;;20.30;82.00;;;;;;5065294;28;20188;-72
2023/05/04 09:35:40;;;;;;;5.05;2.55;;;20.30;82.80;;;;;;5080676;28;20578;-71
2023/05/04 09:38:06;;;;;;;6.32;3.42;;;19.50;82.80;;;;;;5074049;28;20563;-71
2023/05/04 09:40:35;;;;;;;12.75;3.33;;;19.10;83.40;;;;;;5073372;28;20294;-71
2023/05/04 09:43:01;;;;;;;9.87;4.23;;;18.90;84.70;;;;;;5067511;28;20460;-71
2023/05/04 09:45:41;;;;;;;12.95;5.60;;;18.80;85.20;;;;;;5068876;28;20182;-70
2023/05/04 09:48:25;;;;;;;6.13;3.10;;;18.80;86.00;;;;;;5067495;28;20231;-71
2023/05/04 09:50:56;;;;;;;7.13;3.15;;;19.00;85.90;;;;;;5071943;28;20218;-71
2023/05/04 09:53:27;;;;;;;6.28;3.20;;;18.80;85.80;;;;;;5061191;28;20214;-72
2023/05/04 09:55:55;;;;;;;4.80;2.50;;;18.90;85.30;;;;;;5065074;28;20525;-71
2023/05/04 09:58:23;;;;;;;6.22;2.97;;;19.20;85.40;;;;;;5063643;28;20211;-73
2023/05/04 10:00:49;;;;;;;5.70;3.47;;;19.10;85.40;;;;;;5063304;28;20619;-72
2023/05/04 10:03:15;;;;;;;5.90;2.85;;;19.00;85.60;;;;;;5069196;28;20171;-72
2023/05/04 10:05:41;;;;;;;6.20;3.00;;;19.20;85.70;;;;;;5062081;28;20233;-71
2023/05/04 10:08:07;;;;;;;8.68;2.80;;;18.90;85.00;;;;;;5060365;28;20697;-71
2023/05/04 10:10:34;;;;;;;5.10;3.38;;;18.80;86.40;;;;;;5060051;28;20207;-71
2023/05/04 10:13:00;;;;;;;8.88;2.75;;;19.20;87.00;;;;;;5074323;28;20701;-72
2023/05/04 10:15:27;;;;;;;9.38;2.80;;;19.20;86.20;;;;;;5067766;28;20182;-73
2023/05/04 10:18:24;;;;;;;5.70;2.67;;;19.80;85.90;;;;;;5067498;28;20228;-72
2023/05/04 10:21:15;;;;;;;7.75;3.22;;;19.60;85.20;;;;;;5052984;28;20721;-71
2023/05/04 10:23:52;;;;;;;7.07;2.95;;;19.70;85.40;;;;;;5055925;28;20210;-71
2023/05/04 10:26:25;;;;;;;6.00;3.10;;;20.10;84.50;;;;;;5068221;28;20204;-72
2023/05/04 10:29:01;;;;;;;8.95;2.83;;;20.10;85.00;;;;;;5065464;28;20258;-71
2023/05/04 10:31:37;;;;;;;5.70;2.55;;;19.60;83.70;;;;;;5059042;28;20207;-71
2023/05/04 10:34:02;;;;;;;4.65;3.10;;;19.40;84.10;;;;;;5066342;28;20207;-71
2023/05/04 10:36:36;;;;;;;7.88;2.28;;;19.20;84.90;;;;;;5064477;28;20178;-71
2023/05/04 10:39:02;;;;;;;8.20;2.75;;;18.70;85.70;;;;;;5066657;28;20215;-71
2023/05/04 10:41:28;;;;;;;5.20;2.65;;;18.50;85.00;;;;;;5061114;28;20636;-71
2023/05/04 10:44:04;;;;;;;5.65;2.75;;;18.70;85.40;;;;;;5060687;28;20203;-71
2023/05/04 10:46:30;;;;;;;5.35;3.95;;;18.50;85.70;;;;;;5058400;28;20287;-71
2023/05/04 10:48:56;;;;;;;7.72;2.70;;;18.60;85.80;;;;;;5077095;28;20210;-70
2023/05/04 10:51:23;;;;;;;8.30;4.00;;;19.00;85.20;;;;;;5074499;28;20222;-71
2023/05/04 10:53:49;;;;;;;8.80;3.42;;;18.90;85.20;;;;;;5069567;28;20234;-71
2023/05/04 10:56:21;;;;;;;5.68;2.97;;;19.00;84.70;;;;;;5066749;28;20253;-71
2023/05/04 10:58:48;;;;;;;7.03;3.13;;;18.90;84.40;;;;;;5072066;28;20587;-71
2023/05/04 11:01:13;;;;;;;6.80;3.45;;;19.30;85.80;;;;;;5070822;28;20216;-71
2023/05/04 11:03:40;;;;;;;4.05;2.75;;;19.30;86.10;;;;;;5070480;28;20555;-71
2023/05/04 11:06:21;;;;;;;7.88;3.95;;;19.30;86.20;;;;;;5067867;28;20248;-72
2023/05/04 11:08:50;;;;;;;6.50;3.53;;;19.40;85.90;;;;;;5064824;28;20199;-71
2023/05/04 11:11:16;;;;;;;7.93;2.90;;;19.10;84.80;;;;;;5064241;28;20218;-71
2023/05/04 11:13:45;;;;;;;6.38;2.67;;;18.80;85.70;;;;;;5064589;28;20620;-71
2023/05/04 11:16:11;;;;;;;7.50;2.60;;;19.00;85.20;;;;;;5062962;28;20279;-71
2023/05/04 11:18:37;;;;;;;7.55;2.88;;;19.60;85.60;;;;;;5063892;28;20782;-71
2023/05/04 11:21:03;;;;;;;5.47;2.58;;;19.00;83.20;;;;;;5060270;28;20218;-71
2023/05/04 11:23:29;;;;;;;5.50;2.60;;;19.10;83.30;;;;;;5061466;28;20203;-72
2023/05/04 11:25:55;;;;;;;6.05;2.88;;;19.30;80.80;;;;;;5066699;28;20214;-71
2023/05/04 11:28:34;;;;;;;6.38;2.72;;;18.90;81.10;;;;;;5070066;28;20205;-69
2023/05/04 11:31:01;;;;;;;6.03;2.33;;;18.90;79.30;;;;;;5072666;28;20637;-71
2023/05/04 11:33:26;;;;;;;5.50;2.00;;;19.00;78.40;;;;;;5065217;28;20180;-72
2023/05/04 11:36:00;;;;;;;5.65;2.55;;;19.00;75.00;;;;;;5068061;28;20252;-71
2023/05/04 11:38:25;;;;;;;2.90;2.20;;;19.30;75.20;;;;;;5070746;28;20219;-70
2023/05/04 11:40:51;;;;;;;7.45;4.00;;;19.40;72.70;;;;;;5066396;28;20207;-72
2023/05/04 11:43:17;;;;;;;6.45;2.80;;;19.10;76.30;;;;;;5061078;28;20253;-71
2023/05/04 11:45:46;;;;;;;6.65;2.60;;;19.20;78.20;;;;;;5061718;28;20194;-71
2023/05/04 11:48:12;;;;;;;6.03;2.72;;;19.30;79.90;;;;;;5057955;28;20183;-71
2023/05/04 11:50:38;;;;;;;6.60;2.38;;;19.30;81.10;;;;;;5061805;28;20271;-71
2023/05/04 11:53:08;;;;;;;4.53;2.25;;;19.10;82.00;;;;;;5061029;28;20241;-71
2023/05/04 11:55:36;;;;;;;6.00;2.85;;;19.50;82.70;;;;;;5069899;28;20209;-72
2023/05/04 11:58:04;;;;;;;5.43;3.50;;;19.40;82.40;;;;;;5061044;28;20207;-71
2023/05/04 12:00:38;;;;;;;5.47;2.78;;;19.30;82.60;;;;;;5063416;28;20214;-71
2023/05/04 12:03:06;;;;;;;4.18;2.55;;;19.20;82.90;;;;;;5059372;28;20683;-72
2023/05/04 12:05:33;;;;;;;6.65;4.43;;;19.30;81.00;;;;;;5074165;28;20199;-70
2023/05/04 12:07:59;;;;;;;5.40;2.38;;;19.00;79.80;;;;;;5076147;28;20512;-70
2023/05/04 12:10:30;;;;;;;3.65;2.42;;;19.30;80.30;;;;;;5069959;28;20294;-72
2023/05/04 12:12:56;;;;;;;5.43;2.30;;;19.20;80.30;;;;;;5075356;28;20364;-70
2023/05/04 12:15:33;;;;;;;5.93;2.85;;;19.20;80.20;;;;;;5074804;28;20174;-71
2023/05/04 12:17:58;;;;;;;3.75;2.40;;;19.10;80.30;;;;;;5070464;28;20210;-70
2023/05/04 12:20:29;;;;;;;4.72;2.83;;;19.10;80.60;;;;;;5063004;28;20223;-70
2023/05/04 12:22:56;;;;;;;5.40;2.80;;;19.40;81.50;;;;;;5068924;28;20599;-71
2023/05/04 12:25:23;;;;;;;6.45;2.38;;;19.50;82.30;;;;;;5062322;28;20215;-71
2023/05/04 12:27:49;;;;;;;4.40;2.40;;;20.00;82.50;;;;;;5058768;28;20585;-71
2023/05/04 12:30:15;;;;;;;3.95;2.20;;;20.20;80.10;;;;;;5060976;28;20572;-71
2023/05/04 12:32:42;;;;;;;4.85;2.38;;;19.80;79.30;;;;;;5060903;28;20226;-71
2023/05/04 12:35:08;;;;;;;6.75;2.97;;;19.40;80.20;;;;;;5059252;28;20767;-71
2023/05/04 12:37:34;;;;;;;5.05;2.50;;;19.50;80.20;;;;;;5067162;28;20678;-72
2023/05/04 12:39:59;;;;;;;5.93;2.50;;;19.50;80.80;;;;;;5058292;28;20218;-72
2023/05/04 12:42:25;;;;;;;4.82;2.33;;;19.30;80.50;;;;;;5061630;28;20175;-71
2023/05/04 12:44:51;;;;;;;4.30;2.38;;;19.30;81.60;;;;;;5057989;28;20247;-71
2023/05/04 12:47:17;;;;;;;5.20;2.92;;;19.40;83.30;;;;;;5060705;28;20218;-71